sensor_id;sensor_type;location;lat;lon;timestamp;pressure;altitude;pressure_sealevel;temperature;humidity
23953;BME280;12163;49.316;6.092;2023-11-22T00:00:15;99991.88;;;10.37;77.34
23953;BME280;12163;49.316;6.092;2023-11-22T00:02:42;99982.16;;;10.36;76.26
23953;BME280;12163;49.316;6.092;2023-11-22T00:05:08;99989.72;;;10.34;75.09
23953;BME280;12163;49.316;6.092;2023-11-22T00:07:37;99991.09;;;10.36;75.47
23953;BME280;12163;49.316;6.092;2023-11-22T00:10:05;99988.38;;;10.36;75.66
23953;BME280;12163;49.316;6.092;2023-11-22T00:12:31;99999.19;;;10.36;75.30
23953;BME280;12163;49.316;6.092;2023-11-22T00:15:05;99992.41;;;10.34;74.54
23953;BME280;12163;49.316;6.092;2023-11-22T00:17:33;99998.63;;;10.34;74.02
23953;BME280;12163;49.316;6.092;2023-11-22T00:20:00;100000.50;;;10.34;73.08
23953;BME280;12163;49.316;6.092;2023-11-22T00:22:30;100009.69;;;10.33;72.85
23953;BME280;12163;49.316;6.092;2023-11-22T00:24:59;100009.69;;;10.33;72.43
23953;BME280;12163;49.316;6.092;2023-11-22T00:27:28;100014.00;;;10.34;72.61
23953;BME280;12163;49.316;6.092;2023-11-22T00:29:56;100010.50;;;10.33;72.48
23953;BME280;12163;49.316;6.092;2023-11-22T00:32:23;100015.91;;;10.33;72.40
23953;BME280;12163;49.316;6.092;2023-11-22T00:34:50;100016.69;;;10.34;72.09
23953;BME280;12163;49.316;6.092;2023-11-22T00:37:16;100018.88;;;10.32;71.92
23953;BME280;12163;49.316;6.092;2023-11-22T00:39:43;100022.09;;;10.29;72.18
23953;BME280;12163;49.316;6.092;2023-11-22T00:42:09;100028.84;;;10.26;72.06
23953;BME280;12163;49.316;6.092;2023-11-22T00:44:36;100027.50;;;10.24;72.17
23953;BME280;12163;49.316;6.092;2023-11-22T00:47:03;100033.69;;;10.24;71.57
23953;BME280;12163;49.316;6.092;2023-11-22T00:49:29;100029.09;;;10.20;71.56
23953;BME280;12163;49.316;6.092;2023-11-22T00:51:56;100037.75;;;10.17;71.08
23953;BME280;12163;49.316;6.092;2023-11-22T00:54:26;100036.13;;;10.11;70.02
23953;BME280;12163;49.316;6.092;2023-11-22T00:56:52;100042.63;;;10.05;71.01
23953;BME280;12163;49.316;6.092;2023-11-22T00:59:19;100047.41;;;9.98;71.45
23953;BME280;12163;49.316;6.092;2023-11-22T01:01:46;100061.44;;;9.85;71.85
23953;BME280;12163;49.316;6.092;2023-11-22T01:04:12;100061.41;;;9.75;72.19
23953;BME280;12163;49.316;6.092;2023-11-22T01:06:39;100065.72;;;9.66;72.87
23953;BME280;12163;49.316;6.092;2023-11-22T01:09:07;100060.03;;;9.53;72.47
23953;BME280;12163;49.316;6.092;2023-11-22T01:11:35;100065.66;;;9.41;72.89
23953;BME280;12163;49.316;6.092;2023-11-22T01:14:01;100067.25;;;9.32;73.36
23953;BME280;12163;49.316;6.092;2023-11-22T01:16:28;100075.81;;;9.24;73.65
23953;BME280;12163;49.316;6.092;2023-11-22T01:18:55;100083.03;;;9.14;73.71
23953;BME280;12163;49.316;6.092;2023-11-22T01:21:21;100087.03;;;9.06;73.43
23953;BME280;12163;49.316;6.092;2023-11-22T01:23:48;100089.16;;;8.99;73.54
23953;BME280;12163;49.316;6.092;2023-11-22T01:26:14;100095.09;;;8.96;73.54
23953;BME280;12163;49.316;6.092;2023-11-22T01:28:43;100095.06;;;8.91;73.77
23953;BME280;12163;49.316;6.092;2023-11-22T01:31:12;100114.44;;;8.88;74.04
23953;BME280;12163;49.316;6.092;2023-11-22T01:33:39;100107.91;;;8.84;73.70
23953;BME280;12163;49.316;6.092;2023-11-22T01:36:06;100123.50;;;8.77;73.77
23953;BME280;12163;49.316;6.092;2023-11-22T01:38:33;100118.09;;;8.72;74.07
23953;BME280;12163;49.316;6.092;2023-11-22T01:41:00;100115.63;;;8.66;73.80
23953;BME280;12163;49.316;6.092;2023-11-22T01:43:28;100122.59;;;8.62;73.86
23953;BME280;12163;49.316;6.092;2023-11-22T01:45:55;100128.72;;;8.57;73.73
23953;BME280;12163;49.316;6.092;2023-11-22T01:48:22;100118.19;;;8.51;73.90
23953;BME280;12163;49.316;6.092;2023-11-22T01:50:49;100128.38;;;8.49;73.88
23953;BME280;12163;49.316;6.092;2023-11-22T01:53:16;100126.22;;;8.46;74.01
23953;BME280;12163;49.316;6.092;2023-11-22T01:55:44;100122.69;;;8.40;73.70
23953;BME280;12163;49.316;6.092;2023-11-22T01:58:11;100133.94;;;8.37;73.39
23953;BME280;12163;49.316;6.092;2023-11-22T02:00:49;100123.41;;;8.31;73.25
23953;BME280;12163;49.316;6.092;2023-11-22T02:03:16;100126.38;;;8.30;73.60
23953;BME280;12163;49.316;6.092;2023-11-22T02:05:44;100129.56;;;8.27;73.55
23953;BME280;12163;49.316;6.092;2023-11-22T02:08:11;100141.91;;;8.23;73.87
23953;BME280;12163;49.316;6.092;2023-11-22T02:10:39;100146.97;;;8.19;74.17
23953;BME280;12163;49.316;6.092;2023-11-22T02:13:07;100150.13;;;8.16;73.80
23953;BME280;12163;49.316;6.092;2023-11-22T02:15:34;100148.44;;;8.10;73.55
23953;BME280;12163;49.316;6.092;2023-11-22T02:18:02;100149.22;;;8.06;73.09
23953;BME280;12163;49.316;6.092;2023-11-22T02:20:38;100159.94;;;8.01;72.37
23953;BME280;12163;49.316;6.092;2023-11-22T02:23:09;100163.38;;;7.96;72.20
23953;BME280;12163;49.316;6.092;2023-11-22T02:25:37;100173.25;;;7.91;71.58
23953;BME280;12163;49.316;6.092;2023-11-22T02:28:04;100175.88;;;7.86;71.18
23953;BME280;12163;49.316;6.092;2023-11-22T02:30:31;100176.41;;;7.83;70.79
23953;BME280;12163;49.316;6.092;2023-11-22T02:32:58;100178.44;;;7.76;70.80
23953;BME280;12163;49.316;6.092;2023-11-22T02:35:24;100179.47;;;7.70;70.72
23953;BME280;12163;49.316;6.092;2023-11-22T02:37:51;100187.47;;;7.65;70.75
23953;BME280;12163;49.316;6.092;2023-11-22T02:40:19;100189.03;;;7.61;70.62
23953;BME280;12163;49.316;6.092;2023-11-22T02:42:47;100199.72;;;7.56;70.44
23953;BME280;12163;49.316;6.092;2023-11-22T02:45:18;100210.88;;;7.48;69.99
23953;BME280;12163;49.316;6.092;2023-11-22T02:47:45;100205.94;;;7.40;70.28
23953;BME280;12163;49.316;6.092;2023-11-22T02:50:13;100209.63;;;7.34;70.00
23953;BME280;12163;49.316;6.092;2023-11-22T02:52:40;100210.03;;;7.26;70.00
23953;BME280;12163;49.316;6.092;2023-11-22T02:55:08;100207.78;;;7.18;70.05
23953;BME280;12163;49.316;6.092;2023-11-22T02:57:38;100221.38;;;7.11;69.77
23953;BME280;12163;49.316;6.092;2023-11-22T03:00:07;100232.53;;;7.03;70.02
23953;BME280;12163;49.316;6.092;2023-11-22T03:02:41;100228.97;;;6.98;70.12
23953;BME280;12163;49.316;6.092;2023-11-22T03:05:08;100238.00;;;6.92;70.16
23953;BME280;12163;49.316;6.092;2023-11-22T03:07:43;100245.13;;;6.86;70.42
23953;BME280;12163;49.316;6.092;2023-11-22T03:10:09;100250.44;;;6.81;70.50
23953;BME280;12163;49.316;6.092;2023-11-22T03:12:36;100250.09;;;6.78;70.42
23953;BME280;12163;49.316;6.092;2023-11-22T03:15:04;100250.00;;;6.73;70.94
23953;BME280;12163;49.316;6.092;2023-11-22T03:17:31;100244.31;;;6.69;71.15
23953;BME280;12163;49.316;6.092;2023-11-22T03:19:59;100245.03;;;6.65;71.50
23953;BME280;12163;49.316;6.092;2023-11-22T03:22:27;100238.78;;;6.60;71.83
23953;BME280;12163;49.316;6.092;2023-11-22T03:24:58;100244.06;;;6.55;71.98
23953;BME280;12163;49.316;6.092;2023-11-22T03:27:25;100234.88;;;6.51;72.18
23953;BME280;12163;49.316;6.092;2023-11-22T03:29:52;100254.94;;;6.48;72.46
23953;BME280;12163;49.316;6.092;2023-11-22T03:32:19;100251.34;;;6.43;72.38
23953;BME280;12163;49.316;6.092;2023-11-22T03:34:45;100245.66;;;6.39;72.90
23953;BME280;12163;49.316;6.092;2023-11-22T03:37:12;100249.66;;;6.37;72.85
23953;BME280;12163;49.316;6.092;2023-11-22T03:39:39;100247.47;;;6.34;73.32
23953;BME280;12163;49.316;6.092;2023-11-22T03:42:06;100260.03;;;6.33;73.59
23953;BME280;12163;49.316;6.092;2023-11-22T03:44:32;100268.56;;;6.30;73.37
23953;BME280;12163;49.316;6.092;2023-11-22T03:46:59;100279.75;;;6.27;73.84
23953;BME280;12163;49.316;6.092;2023-11-22T03:49:26;100276.50;;;6.25;73.79
23953;BME280;12163;49.316;6.092;2023-11-22T03:51:53;100276.16;;;6.22;74.19
23953;BME280;12163;49.316;6.092;2023-11-22T03:54:19;100288.16;;;6.19;73.72
23953;BME280;12163;49.316;6.092;2023-11-22T03:56:46;100294.00;;;6.16;74.31
23953;BME280;12163;49.316;6.092;2023-11-22T03:59:13;100299.03;;;6.13;73.99
23953;BME280;12163;49.316;6.092;2023-11-22T04:01:39;100297.88;;;6.09;74.34
23953;BME280;12163;49.316;6.092;2023-11-22T04:04:06;100314.66;;;6.04;74.63
23953;BME280;12163;49.316;6.092;2023-11-22T04:06:34;100305.72;;;5.99;74.62
23953;BME280;12163;49.316;6.092;2023-11-22T04:09:01;100308.03;;;5.95;75.44
23953;BME280;12163;49.316;6.092;2023-11-22T04:11:28;100304.00;;;5.93;75.35
23953;BME280;12163;49.316;6.092;2023-11-22T04:13:55;100309.47;;;5.86;75.92
23953;BME280;12163;49.316;6.092;2023-11-22T04:16:22;100315.31;;;5.83;75.61
23953;BME280;12163;49.316;6.092;2023-11-22T04:18:49;100317.88;;;5.78;76.12
23953;BME280;12163;49.316;6.092;2023-11-22T04:21:16;100321.22;;;5.74;76.23
23953;BME280;12163;49.316;6.092;2023-11-22T04:23:43;100324.59;;;5.69;76.42
23953;BME280;12163;49.316;6.092;2023-11-22T04:26:09;100325.06;;;5.66;76.04
23953;BME280;12163;49.316;6.092;2023-11-22T04:28:37;100331.94;;;5.62;76.83
23953;BME280;12163;49.316;6.092;2023-11-22T04:31:03;100334.03;;;5.60;77.01
23953;BME280;12163;49.316;6.092;2023-11-22T04:33:30;100342.06;;;5.60;76.83
23953;BME280;12163;49.316;6.092;2023-11-22T04:35:57;100349.53;;;5.58;77.54
23953;BME280;12163;49.316;6.092;2023-11-22T04:38:23;100344.66;;;5.55;77.40
23953;BME280;12163;49.316;6.092;2023-11-22T04:40:51;100346.13;;;5.51;77.39
23953;BME280;12163;49.316;6.092;2023-11-22T04:43:18;100351.38;;;5.46;77.26
23953;BME280;12163;49.316;6.092;2023-11-22T04:45:44;100362.34;;;5.45;78.07
23953;BME280;12163;49.316;6.092;2023-11-22T04:48:11;100359.66;;;5.45;78.00
23953;BME280;12163;49.316;6.092;2023-11-22T04:50:38;100365.81;;;5.45;78.15
23953;BME280;12163;49.316;6.092;2023-11-22T04:53:05;100357.19;;;5.43;77.72
23953;BME280;12163;49.316;6.092;2023-11-22T04:55:31;100364.66;;;5.41;77.91
23953;BME280;12163;49.316;6.092;2023-11-22T04:57:58;100367.78;;;5.38;78.01
23953;BME280;12163;49.316;6.092;2023-11-22T05:00:24;100378.38;;;5.33;77.84
23953;BME280;12163;49.316;6.092;2023-11-22T05:02:51;100377.78;;;5.31;78.06
23953;BME280;12163;49.316;6.092;2023-11-22T05:05:18;100384.63;;;5.27;77.82
23953;BME280;12163;49.316;6.092;2023-11-22T05:07:44;100380.78;;;5.23;78.29
23953;BME280;12163;49.316;6.092;2023-11-22T05:10:11;100393.81;;;5.20;78.45
23953;BME280;12163;49.316;6.092;2023-11-22T05:12:38;100406.25;;;5.14;78.24
23953;BME280;12163;49.316;6.092;2023-11-22T05:15:06;100411.25;;;5.11;78.83
23953;BME280;12163;49.316;6.092;2023-11-22T05:17:34;100414.59;;;5.06;78.38
23953;BME280;12163;49.316;6.092;2023-11-22T05:20:01;100425.75;;;5.03;78.96
23953;BME280;12163;49.316;6.092;2023-11-22T05:22:27;100418.78;;;5.02;78.88
23953;BME280;12163;49.316;6.092;2023-11-22T05:24:54;100417.59;;;4.98;79.00
23953;BME280;12163;49.316;6.092;2023-11-22T05:27:20;100411.09;;;4.94;78.71
23953;BME280;12163;49.316;6.092;2023-11-22T05:29:47;100411.53;;;4.92;78.81
23953;BME280;12163;49.316;6.092;2023-11-22T05:32:20;100415.28;;;4.91;79.50
23953;BME280;12163;49.316;6.092;2023-11-22T05:34:47;100412.81;;;4.89;79.33
23953;BME280;12163;49.316;6.092;2023-11-22T05:37:14;100410.34;;;4.88;79.61
23953;BME280;12163;49.316;6.092;2023-11-22T05:39:41;100419.41;;;4.87;79.25
23953;BME280;12163;49.316;6.092;2023-11-22T05:42:07;100414.97;;;4.81;79.29
23953;BME280;12163;49.316;6.092;2023-11-22T05:44:34;100418.69;;;4.80;79.94
23953;BME280;12163;49.316;6.092;2023-11-22T05:47:00;100422.41;;;4.79;79.49
23953;BME280;12163;49.316;6.092;2023-11-22T05:49:27;100419.94;;;4.77;79.40
23953;BME280;12163;49.316;6.092;2023-11-22T05:51:54;100426.97;;;4.78;79.79
23953;BME280;12163;49.316;6.092;2023-11-22T05:54:21;100418.53;;;5.45;82.75
23953;BME280;12163;49.316;6.092;2023-11-22T05:56:47;100411.38;;;6.42;83.25
23953;BME280;12163;49.316;6.092;2023-11-22T05:59:14;100417.47;;;7.21;82.13
23953;BME280;12163;49.316;6.092;2023-11-22T06:01:41;100413.25;;;7.75;80.26
23953;BME280;12163;49.316;6.092;2023-11-22T06:04:07;100405.19;;;8.29;79.03
23953;BME280;12163;49.316;6.092;2023-11-22T06:06:36;100397.59;;;8.90;77.78
23953;BME280;12163;49.316;6.092;2023-11-22T06:09:03;100405.84;;;9.42;75.74
23953;BME280;12163;49.316;6.092;2023-11-22T06:11:31;100400.34;;;9.58;73.54
23953;BME280;12163;49.316;6.092;2023-11-22T06:13:58;100417.16;;;9.75;74.13
23953;BME280;12163;49.316;6.092;2023-11-22T06:16:25;100421.06;;;9.89;73.62
23953;BME280;12163;49.316;6.092;2023-11-22T06:18:51;100426.88;;;10.07;72.77
23953;BME280;12163;49.316;6.092;2023-11-22T06:21:18;100432.59;;;10.16;71.44
23953;BME280;12163;49.316;6.092;2023-11-22T06:23:45;100433.75;;;10.30;70.93
23953;BME280;12163;49.316;6.092;2023-11-22T06:26:12;100442.72;;;10.45;69.56
23953;BME280;12163;49.316;6.092;2023-11-22T06:28:38;100435.50;;;10.61;67.78
23953;BME280;12163;49.316;6.092;2023-11-22T06:31:05;100434.97;;;10.59;66.45
23953;BME280;12163;49.316;6.092;2023-11-22T06:33:31;100433.31;;;10.48;65.15
23953;BME280;12163;49.316;6.092;2023-11-22T06:35:58;100441.50;;;10.16;63.49
23953;BME280;12163;49.316;6.092;2023-11-22T06:38:25;100440.84;;;9.68;64.76
23953;BME280;12163;49.316;6.092;2023-11-22T06:40:51;100444.19;;;9.49;66.43
23953;BME280;12163;49.316;6.092;2023-11-22T06:43:18;100442.34;;;9.54;66.43
23953;BME280;12163;49.316;6.092;2023-11-22T06:45:44;100444.56;;;9.62;66.71
23953;BME280;12163;49.316;6.092;2023-11-22T06:48:11;100453.06;;;9.81;65.84
23953;BME280;12163;49.316;6.092;2023-11-22T06:50:38;100461.19;;;9.86;65.31
23953;BME280;12163;49.316;6.092;2023-11-22T06:53:05;100461.34;;;9.69;64.59
23953;BME280;12163;49.316;6.092;2023-11-22T06:55:32;100463.56;;;9.19;64.17
23953;BME280;12163;49.316;6.092;2023-11-22T06:57:59;100461.44;;;8.73;65.08
23953;BME280;12163;49.316;6.092;2023-11-22T07:00:26;100462.88;;;8.38;66.04
23953;BME280;12163;49.316;6.092;2023-11-22T07:02:54;100465.63;;;8.10;67.00
23953;BME280;12163;49.316;6.092;2023-11-22T07:05:20;100460.22;;;7.89;67.40
23953;BME280;12163;49.316;6.092;2023-11-22T07:07:47;100469.59;;;7.70;68.04
23953;BME280;12163;49.316;6.092;2023-11-22T07:10:16;100464.69;;;7.50;68.42
23953;BME280;12163;49.316;6.092;2023-11-22T07:12:42;100474.94;;;7.37;68.96
23953;BME280;12163;49.316;6.092;2023-11-22T07:15:10;100487.09;;;7.28;69.17
23953;BME280;12163;49.316;6.092;2023-11-22T07:17:36;100496.63;;;7.19;69.50
23953;BME280;12163;49.316;6.092;2023-11-22T07:20:03;100494.06;;;7.12;70.46
23953;BME280;12163;49.316;6.092;2023-11-22T07:22:35;100501.19;;;7.07;70.34
23953;BME280;12163;49.316;6.092;2023-11-22T07:25:02;100478.59;;;7.03;70.73
23953;BME280;12163;49.316;6.092;2023-11-22T07:27:29;100486.31;;;6.99;71.34
23953;BME280;12163;49.316;6.092;2023-11-22T07:29:55;100491.34;;;6.96;71.15
23953;BME280;12163;49.316;6.092;2023-11-22T07:32:22;100494.50;;;6.93;71.45
23953;BME280;12163;49.316;6.092;2023-11-22T07:34:49;100503.03;;;6.90;71.92
23953;BME280;12163;49.316;6.092;2023-11-22T07:37:16;100494.97;;;6.90;71.77
23953;BME280;12163;49.316;6.092;2023-11-22T07:39:44;100502.19;;;6.89;71.88
23953;BME280;12163;49.316;6.092;2023-11-22T07:42:11;100502.69;;;6.86;71.94
23953;BME280;12163;49.316;6.092;2023-11-22T07:44:37;100515.28;;;6.86;72.05
23953;BME280;12163;49.316;6.092;2023-11-22T07:47:06;100511.53;;;6.87;72.49
23953;BME280;12163;49.316;6.092;2023-11-22T07:49:38;100505.09;;;6.88;72.88
23953;BME280;12163;49.316;6.092;2023-11-22T07:52:05;100515.97;;;6.93;72.41
23953;BME280;12163;49.316;6.092;2023-11-22T07:54:33;100517.03;;;6.92;72.60
23953;BME280;12163;49.316;6.092;2023-11-22T07:57:01;100517.25;;;6.90;72.94
23953;BME280;12163;49.316;6.092;2023-11-22T07:59:28;100523.75;;;6.94;72.55
23953;BME280;12163;49.316;6.092;2023-11-22T08:01:54;100519.09;;;7.01;73.39
23953;BME280;12163;49.316;6.092;2023-11-22T08:04:21;100530.84;;;7.12;72.90
23953;BME280;12163;49.316;6.092;2023-11-22T08:06:49;100532.66;;;7.23;72.75
23953;BME280;12163;49.316;6.092;2023-11-22T08:09:17;100542.91;;;7.26;72.40
23953;BME280;12163;49.316;6.092;2023-11-22T08:11:46;100545.03;;;7.24;72.38
23953;BME280;12163;49.316;6.092;2023-11-22T08:14:12;100551.09;;;7.19;71.98
23953;BME280;12163;49.316;6.092;2023-11-22T08:16:41;100553.94;;;7.13;72.09
23953;BME280;12163;49.316;6.092;2023-11-22T08:19:09;100561.06;;;7.07;72.18
23953;BME280;12163;49.316;6.092;2023-11-22T08:21:36;100558.78;;;6.99;72.01
23953;BME280;12163;49.316;6.092;2023-11-22T08:24:02;100570.78;;;6.97;72.68
23953;BME280;12163;49.316;6.092;2023-11-22T08:26:29;100576.16;;;6.97;72.86
23953;BME280;12163;49.316;6.092;2023-11-22T08:28:56;100572.41;;;6.98;72.62
23953;BME280;12163;49.316;6.092;2023-11-22T08:31:22;100570.41;;;7.05;73.08
23953;BME280;12163;49.316;6.092;2023-11-22T08:33:49;100569.22;;;7.12;73.21
23953;BME280;12163;49.316;6.092;2023-11-22T08:36:16;100565.69;;;7.23;72.53
23953;BME280;12163;49.316;6.092;2023-11-22T08:38:42;100561.78;;;7.31;72.13
23953;BME280;12163;49.316;6.092;2023-11-22T08:41:10;100558.66;;;7.34;72.32
23953;BME280;12163;49.316;6.092;2023-11-22T08:43:40;100558.41;;;7.35;71.65
23953;BME280;12163;49.316;6.092;2023-11-22T08:46:07;100564.59;;;7.36;71.80
23953;BME280;12163;49.316;6.092;2023-11-22T08:48:40;100566.88;;;7.44;72.40
23953;BME280;12163;49.316;6.092;2023-11-22T08:51:09;100564.97;;;7.56;71.60
23953;BME280;12163;49.316;6.092;2023-11-22T08:53:36;100562.94;;;7.63;70.77
23953;BME280;12163;49.316;6.092;2023-11-22T08:56:04;100566.88;;;7.72;70.55
23953;BME280;12163;49.316;6.092;2023-11-22T08:58:32;100561.00;;;7.75;69.82
23953;BME280;12163;49.316;6.092;2023-11-22T09:01:00;100559.50;;;7.79;70.00
23953;BME280;12163;49.316;6.092;2023-11-22T09:03:27;100565.59;;;7.91;70.25
23953;BME280;12163;49.316;6.092;2023-11-22T09:05:55;100562.50;;;7.99;69.52
23953;BME280;12163;49.316;6.092;2023-11-22T09:08:22;100544.66;;;8.09;69.41
23953;BME280;12163;49.316;6.092;2023-11-22T09:10:53;100553.16;;;8.18;69.25
23953;BME280;12163;49.316;6.092;2023-11-22T09:13:21;100550.69;;;8.16;68.33
23953;BME280;12163;49.316;6.092;2023-11-22T09:15:48;100547.44;;;8.14;67.74
23953;BME280;12163;49.316;6.092;2023-11-22T09:18:16;100536.34;;;8.11;68.02
23953;BME280;12163;49.316;6.092;2023-11-22T09:20:43;100528.53;;;8.09;67.76
23953;BME280;12163;49.316;6.092;2023-11-22T09:23:11;100536.13;;;8.12;67.95
23953;BME280;12163;49.316;6.092;2023-11-22T09:25:38;100539.72;;;8.18;67.16
23953;BME280;12163;49.316;6.092;2023-11-22T09:28:05;100542.25;;;8.24;66.00
23953;BME280;12163;49.316;6.092;2023-11-22T09:30:34;100533.44;;;8.29;64.68
23953;BME280;12163;49.316;6.092;2023-11-22T09:35:34;100551.50;;;8.49;64.58
23953;BME280;12163;49.316;6.092;2023-11-22T09:38:05;100561.44;;;8.49;63.32
23953;BME280;12163;49.316;6.092;2023-11-22T09:40:43;100568.78;;;8.53;64.21
23953;BME280;12163;49.316;6.092;2023-11-22T09:43:11;100583.03;;;8.54;64.14
23953;BME280;12163;49.316;6.092;2023-11-22T09:45:38;100587.38;;;8.55;64.34
23953;BME280;12163;49.316;6.092;2023-11-22T09:48:17;100583.44;;;8.62;64.35
23953;BME280;12163;49.316;6.092;2023-11-22T09:53:40;100582.94;;;8.65;62.48
23953;BME280;12163;49.316;6.092;2023-11-22T09:56:11;100578.56;;;8.59;60.31
23953;BME280;12163;49.316;6.092;2023-11-22T09:58:41;100597.31;;;8.54;60.92
23953;BME280;12163;49.316;6.092;2023-11-22T10:01:14;100602.13;;;8.52;61.10
23953;BME280;12163;49.316;6.092;2023-11-22T10:03:41;100597.81;;;8.51;60.56
23953;BME280;12163;49.316;6.092;2023-11-22T10:06:08;100601.22;;;8.47;60.32
23953;BME280;12163;49.316;6.092;2023-11-22T10:08:35;100604.66;;;8.42;59.12
23953;BME280;12163;49.316;6.092;2023-11-22T10:11:05;100609.22;;;8.42;58.30
23953;BME280;12163;49.316;6.092;2023-11-22T10:13:32;100601.38;;;8.40;57.69
23953;BME280;12163;49.316;6.092;2023-11-22T10:16:12;100599.75;;;8.39;57.26
23953;BME280;12163;49.316;6.092;2023-11-22T10:18:45;100592.84;;;8.43;57.36
23953;BME280;12163;49.316;6.092;2023-11-22T10:21:22;100595.06;;;8.46;57.32
23953;BME280;12163;49.316;6.092;2023-11-22T10:23:56;100590.25;;;8.48;56.66
23953;BME280;12163;49.316;6.092;2023-11-22T10:26:24;100603.25;;;8.56;57.04
23953;BME280;12163;49.316;6.092;2023-11-22T10:28:55;100604.97;;;8.62;55.25
23953;BME280;12163;49.316;6.092;2023-11-22T10:31:24;100597.16;;;8.61;55.43
23953;BME280;12163;49.316;6.092;2023-11-22T10:33:51;100600.00;;;8.54;55.51
23953;BME280;12163;49.316;6.092;2023-11-22T10:36:19;100612.25;;;8.45;56.16
23953;BME280;12163;49.316;6.092;2023-11-22T10:38:48;100601.88;;;8.54;57.10
23953;BME280;12163;49.316;6.092;2023-11-22T10:41:15;100597.44;;;8.64;56.74
23953;BME280;12163;49.316;6.092;2023-11-22T10:43:42;100586.22;;;8.67;57.15
23953;BME280;12163;49.316;6.092;2023-11-22T10:46:12;100575.47;;;8.67;57.38
23953;BME280;12163;49.316;6.092;2023-11-22T10:48:40;100583.25;;;8.69;56.88
23953;BME280;12163;49.316;6.092;2023-11-22T10:51:12;100591.34;;;8.69;56.29
23953;BME280;12163;49.316;6.092;2023-11-22T10:53:44;100598.84;;;8.67;56.01
23953;BME280;12163;49.316;6.092;2023-11-22T10:56:16;100599.69;;;8.67;55.36
23953;BME280;12163;49.316;6.092;2023-11-22T11:01:16;100604.31;;;8.55;56.65
23953;BME280;12163;49.316;6.092;2023-11-22T11:03:56;100600.94;;;8.43;57.35
23953;BME280;12163;49.316;6.092;2023-11-22T11:06:31;100614.75;;;8.35;58.04
23953;BME280;12163;49.316;6.092;2023-11-22T11:09:01;100619.50;;;8.29;57.50
23953;BME280;12163;49.316;6.092;2023-11-22T11:11:36;100624.59;;;8.14;55.68
23953;BME280;12163;49.316;6.092;2023-11-22T11:14:04;100625.78;;;8.06;55.56
23953;BME280;12163;49.316;6.092;2023-11-22T11:16:35;100623.38;;;8.05;55.41
23953;BME280;12163;49.316;6.092;2023-11-22T11:19:04;100615.03;;;8.06;54.27
23953;BME280;12163;49.316;6.092;2023-11-22T11:21:33;100603.50;;;8.06;54.18
23953;BME280;12163;49.316;6.092;2023-11-22T11:24:00;100596.78;;;8.08;55.01
23953;BME280;12163;49.316;6.092;2023-11-22T11:26:32;100604.97;;;8.13;54.53
23953;BME280;12163;49.316;6.092;2023-11-22T11:29:01;100600.50;;;8.19;54.64
23953;BME280;12163;49.316;6.092;2023-11-22T11:31:34;100615.41;;;8.26;54.85
23953;BME280;12163;49.316;6.092;2023-11-22T11:34:06;100612.66;;;8.37;54.66
23953;BME280;12163;49.316;6.092;2023-11-22T11:36:37;100613.06;;;8.46;54.56
23953;BME280;12163;49.316;6.092;2023-11-22T11:39:07;100613.69;;;8.53;54.72
23953;BME280;12163;49.316;6.092;2023-11-22T11:41:42;100619.47;;;8.61;54.34
23953;BME280;12163;49.316;6.092;2023-11-22T11:44:09;100617.34;;;8.63;53.95
23953;BME280;12163;49.316;6.092;2023-11-22T11:46:37;100627.31;;;8.63;51.84
23953;BME280;12163;49.316;6.092;2023-11-22T11:49:08;100623.22;;;8.60;51.93
23953;BME280;12163;49.316;6.092;2023-11-22T11:51:35;100617.03;;;8.60;52.45
23953;BME280;12163;49.316;6.092;2023-11-22T11:54:02;100607.09;;;8.60;52.35
23953;BME280;12163;49.316;6.092;2023-11-22T11:56:29;100609.22;;;8.58;51.50
23953;BME280;12163;49.316;6.092;2023-11-22T11:58:57;100609.38;;;8.52;51.81
23953;BME280;12163;49.316;6.092;2023-11-22T12:01:30;100610.69;;;8.49;52.04
23953;BME280;12163;49.316;6.092;2023-11-22T12:04:02;100620.97;;;8.52;52.21
23953;BME280;12163;49.316;6.092;2023-11-22T12:06:29;100628.53;;;8.55;52.03
23953;BME280;12163;49.316;6.092;2023-11-22T12:08:58;100627.25;;;8.58;51.98
23953;BME280;12163;49.316;6.092;2023-11-22T12:11:24;100624.28;;;8.59;51.66
23953;BME280;12163;49.316;6.092;2023-11-22T12:13:52;100607.09;;;8.60;51.65
23953;BME280;12163;49.316;6.092;2023-11-22T12:16:19;100601.31;;;8.68;52.05
23953;BME280;12163;49.316;6.092;2023-11-22T12:18:47;100598.19;;;8.76;51.61
23953;BME280;12163;49.316;6.092;2023-11-22T12:21:18;100603.06;;;8.79;50.09
23953;BME280;12163;49.316;6.092;2023-11-22T12:23:46;100599.81;;;8.77;49.95
23953;BME280;12163;49.316;6.092;2023-11-22T12:26:17;100590.44;;;8.80;50.56
23953;BME280;12163;49.316;6.092;2023-11-22T12:28:48;100582.97;;;8.87;50.51
23953;BME280;12163;49.316;6.092;2023-11-22T12:31:29;100584.94;;;8.91;49.69
23953;BME280;12163;49.316;6.092;2023-11-22T12:34:01;100584.38;;;8.89;49.33
23953;BME280;12163;49.316;6.092;2023-11-22T12:36:29;100584.59;;;8.88;49.58
23953;BME280;12163;49.316;6.092;2023-11-22T12:38:56;100593.31;;;8.95;49.56
23953;BME280;12163;49.316;6.092;2023-11-22T12:41:26;100589.03;;;8.99;49.33
23953;BME280;12163;49.316;6.092;2023-11-22T12:44:05;100589.69;;;9.06;49.98
23953;BME280;12163;49.316;6.092;2023-11-22T12:46:52;100577.13;;;9.11;50.02
23953;BME280;12163;49.316;6.092;2023-11-22T12:49:26;100569.91;;;9.17;49.48
23953;BME280;12163;49.316;6.092;2023-11-22T12:51:54;100570.53;;;9.24;49.52
23953;BME280;12163;49.316;6.092;2023-11-22T12:54:21;100571.91;;;9.26;49.14
23953;BME280;12163;49.316;6.092;2023-11-22T12:56:51;100564.13;;;9.30;49.49
23953;BME280;12163;49.316;6.092;2023-11-22T12:59:24;100579.47;;;9.29;49.01
23953;BME280;12163;49.316;6.092;2023-11-22T13:01:51;100579.97;;;9.26;48.13
23953;BME280;12163;49.316;6.092;2023-11-22T13:04:19;100576.72;;;9.24;48.58
23953;BME280;12163;49.316;6.092;2023-11-22T13:06:45;100585.13;;;9.28;49.67
23953;BME280;12163;49.316;6.092;2023-11-22T13:09:12;100598.41;;;9.34;49.63
23953;BME280;12163;49.316;6.092;2023-11-22T13:11:43;100610.91;;;9.45;49.60